createdAt,value
2022-10-25T00:01:51.433Z,17.40
2022-10-25T00:04:18.610Z,17.30
2022-10-25T00:06:45.512Z,17.30
2022-10-25T00:09:12.543Z,17.30
2022-10-25T00:11:39.858Z,17.30
2022-10-25T00:14:07.920Z,17.30
2022-10-25T00:16:38.942Z,17.30
2022-10-25T00:19:06.494Z,17.20
2022-10-25T00:21:33.438Z,17.20
2022-10-25T00:24:00.323Z,17.20
2022-10-25T00:26:27.210Z,17.20
2022-10-25T00:28:55.871Z,17.20
2022-10-25T00:31:24.619Z,17.20
2022-10-25T00:33:51.787Z,17.10
2022-10-25T00:36:25.489Z,17.10
2022-10-25T00:38:53.240Z,17.10
2022-10-25T00:41:23.991Z,17.10
2022-10-25T00:43:54.288Z,17.10
2022-10-25T00:46:28.190Z,17.10
2022-10-25T00:49:10.998Z,17.10
2022-10-25T00:51:51.370Z,17.00
2022-10-25T00:54:24.396Z,17.00
2022-10-25T00:56:52.943Z,17.00
2022-10-25T00:59:24.850Z,17.00
2022-10-25T01:01:55.035Z,17.00
2022-10-25T01:04:27.574Z,17.00
2022-10-25T01:06:54.770Z,16.90
2022-10-25T01:09:27.776Z,16.90
2022-10-25T01:11:54.664Z,16.90
2022-10-25T01:14:22.591Z,16.90
2022-10-25T01:17:10.286Z,16.90
2022-10-25T01:19:44.622Z,16.80
2022-10-25T01:22:51.360Z,16.80
2022-10-25T01:25:40.563Z,16.80
2022-10-25T01:28:51.371Z,16.80
2022-10-25T01:31:51.021Z,16.70
2022-10-25T01:34:32.056Z,16.70
2022-10-25T01:37:11.950Z,16.70
2022-10-25T01:40:14.103Z,16.70
2022-10-25T01:43:01.208Z,16.60
2022-10-25T01:45:41.772Z,16.60
2022-10-25T01:48:22.315Z,16.60
2022-10-25T01:50:49.475Z,16.60
2022-10-25T01:53:16.360Z,16.50
2022-10-25T01:55:51.879Z,16.50
2022-10-25T01:58:56.169Z,16.50
2022-10-25T02:01:37.862Z,16.50
2022-10-25T02:04:22.531Z,16.50
2022-10-25T02:06:56.143Z,16.50
2022-10-25T02:09:37.084Z,16.40
2022-10-25T02:12:07.190Z,16.40
2022-10-25T02:14:40.293Z,16.40
2022-10-25T02:17:19.718Z,16.40
2022-10-25T02:19:54.539Z,16.40
2022-10-25T02:22:27.491Z,16.30
2022-10-25T02:24:57.664Z,16.30
2022-10-25T02:27:26.002Z,16.30
2022-10-25T02:29:53.863Z,16.30
2022-10-25T02:32:21.450Z,16.30
2022-10-25T02:34:49.372Z,16.30
2022-10-25T02:37:17.143Z,16.20
2022-10-25T02:39:45.514Z,16.20
2022-10-25T02:42:12.651Z,16.20
2022-10-25T02:44:39.562Z,16.20
2022-10-25T02:47:06.471Z,16.20
2022-10-25T02:49:33.412Z,16.20
2022-10-25T02:52:00.323Z,16.20
2022-10-25T02:54:27.209Z,16.10
2022-10-25T02:56:54.170Z,16.10
2022-10-25T02:59:21.396Z,16.10
2022-10-25T03:01:48.679Z,16.10
2022-10-25T03:04:15.724Z,16.10
2022-10-25T03:06:42.624Z,16.00
2022-10-25T03:09:09.516Z,16.00
2022-10-25T03:11:36.409Z,16.00
2022-10-25T03:14:03.296Z,16.00
2022-10-25T03:16:30.227Z,15.90
2022-10-25T03:18:58.459Z,16.00
2022-10-25T03:21:25.930Z,15.90
2022-10-25T03:23:53.038Z,15.90
2022-10-25T03:26:19.981Z,15.90
2022-10-25T03:28:46.866Z,15.90
2022-10-25T03:31:16.668Z,15.90
2022-10-25T03:33:44.007Z,15.90
2022-10-25T03:36:10.925Z,15.90
2022-10-25T03:38:37.802Z,15.90
2022-10-25T03:41:05.162Z,15.80
2022-10-25T03:43:32.048Z,15.80
2022-10-25T03:45:58.985Z,15.80
2022-10-25T03:48:25.854Z,15.80
2022-10-25T03:50:54.295Z,15.80
2022-10-25T03:53:21.383Z,15.80
2022-10-25T03:55:48.328Z,15.80
2022-10-25T03:58:15.347Z,15.80
2022-10-25T04:00:42.282Z,15.80
2022-10-25T04:03:09.499Z,15.80
2022-10-25T04:05:36.371Z,15.80
2022-10-25T04:08:03.389Z,15.80
2022-10-25T04:10:30.262Z,15.80
2022-10-25T04:12:57.137Z,15.80
2022-10-25T04:15:24.961Z,15.80
2022-10-25T04:17:53.388Z,15.80
2022-10-25T04:20:20.509Z,15.80
2022-10-25T04:22:57.020Z,15.80
2022-10-25T04:25:26.899Z,15.80
2022-10-25T04:27:53.965Z,15.80
2022-10-25T04:30:20.881Z,15.80
2022-10-25T04:32:48.038Z,15.80
2022-10-25T04:35:15.099Z,15.80
2022-10-25T04:37:42.050Z,15.90
2022-10-25T04:40:09.899Z,15.90
2022-10-25T04:42:36.788Z,15.90
2022-10-25T04:45:03.836Z,15.90
2022-10-25T04:47:32.512Z,16.00
2022-10-25T04:49:59.436Z,15.90
2022-10-25T04:52:26.354Z,16.00
2022-10-25T04:54:53.218Z,16.00
2022-10-25T04:57:20.092Z,16.10
2022-10-25T04:59:46.942Z,16.00
2022-10-25T05:02:14.817Z,16.10
2022-10-25T05:04:42.529Z,16.10
2022-10-25T05:07:09.402Z,16.10
2022-10-25T05:09:36.277Z,16.10
2022-10-25T05:12:03.221Z,16.20
2022-10-25T05:14:30.112Z,16.20
2022-10-25T05:16:57.016Z,16.20
2022-10-25T05:19:23.925Z,16.20
2022-10-25T05:21:50.782Z,16.30
2022-10-25T05:24:17.977Z,16.30
2022-10-25T05:26:44.865Z,16.30
2022-10-25T05:29:12.971Z,16.30
2022-10-25T05:31:41.329Z,16.30
2022-10-25T05:34:09.799Z,16.30
2022-10-25T05:36:36.691Z,16.40
2022-10-25T05:39:03.843Z,16.40
2022-10-25T05:41:33.395Z,16.40
2022-10-25T05:44:03.174Z,16.40
2022-10-25T05:46:30.069Z,16.40
2022-10-25T05:48:59.636Z,16.40
2022-10-25T05:51:36.581Z,16.40
2022-10-25T05:54:12.696Z,16.40
2022-10-25T05:56:41.200Z,16.50
2022-10-25T05:59:15.225Z,16.50
2022-10-25T06:01:45.230Z,16.50
2022-10-25T06:04:12.909Z,16.50
2022-10-25T06:06:41.615Z,16.50
2022-10-25T06:09:09.139Z,16.50
2022-10-25T06:11:36.317Z,16.50
2022-10-25T06:14:03.708Z,16.60
2022-10-25T06:16:30.645Z,16.60
2022-10-25T06:18:57.825Z,16.50
2022-10-25T06:21:27.916Z,16.50
2022-10-25T06:23:55.109Z,16.60
2022-10-25T06:26:25.934Z,16.60
2022-10-25T06:28:55.730Z,16.60
2022-10-25T06:31:23.292Z,16.60
2022-10-25T06:33:50.177Z,16.60
2022-10-25T06:36:20.452Z,16.60
2022-10-25T06:38:48.471Z,16.60
2022-10-25T06:41:21.637Z,16.70
2022-10-25T06:43:49.496Z,16.70
2022-10-25T06:46:33.036Z,16.70
2022-10-25T06:49:02.146Z,16.70
2022-10-25T06:51:29.430Z,16.70
2022-10-25T06:53:57.800Z,16.80
2022-10-25T06:56:26.308Z,16.80
2022-10-25T06:58:53.321Z,16.80
2022-10-25T07:01:22.290Z,16.80
2022-10-25T07:03:50.893Z,16.80
2022-10-25T07:06:22.868Z,16.80
2022-10-25T07:08:58.674Z,16.80
2022-10-25T07:11:29.509Z,16.90
2022-10-25T07:13:58.596Z,16.90
2022-10-25T07:16:26.353Z,17.00
2022-10-25T07:18:58.081Z,17.00
2022-10-25T07:21:25.071Z,17.00
2022-10-25T07:23:52.068Z,17.00
2022-10-25T07:26:21.991Z,17.10
2022-10-25T07:28:50.853Z,17.10
2022-10-25T07:31:27.279Z,17.10
2022-10-25T07:33:56.685Z,17.20
2022-10-25T07:36:23.566Z,17.20
2022-10-25T07:38:50.496Z,17.20
2022-10-25T07:41:17.402Z,17.30
2022-10-25T07:43:44.797Z,17.30
2022-10-25T07:46:11.741Z,17.40
2022-10-25T07:48:38.618Z,17.40
2022-10-25T07:51:09.571Z,17.40
2022-10-25T07:53:36.427Z,17.40
2022-10-25T07:56:03.727Z,17.40
2022-10-25T07:58:30.611Z,17.50
2022-10-25T08:01:06.598Z,17.50
2022-10-25T08:03:33.684Z,17.50
2022-10-25T08:06:01.194Z,17.60
2022-10-25T08:08:29.684Z,17.60
2022-10-25T08:10:57.415Z,17.70
2022-10-25T08:13:24.500Z,17.70
2022-10-25T08:15:55.836Z,17.80
2022-10-25T08:18:24.470Z,17.80
2022-10-25T08:21:06.758Z,17.80
2022-10-25T08:23:33.750Z,17.80
2022-10-25T08:26:02.176Z,17.80
2022-10-25T08:28:31.246Z,17.80
2022-10-25T08:30:58.701Z,17.90
2022-10-25T08:33:25.632Z,17.90
2022-10-25T08:35:52.471Z,17.90
2022-10-25T08:38:19.359Z,18.00
2022-10-25T08:41:03.425Z,18.00
2022-10-25T08:43:51.052Z,18.00
2022-10-25T08:46:28.245Z,18.10
2022-10-25T08:49:19.607Z,18.10
2022-10-25T08:51:48.644Z,18.20
2022-10-25T08:54:25.040Z,18.20
2022-10-25T08:57:15.195Z,18.20
2022-10-25T08:59:49.466Z,18.20
2022-10-25T09:02:40.825Z,18.20
2022-10-25T09:05:33.228Z,18.30
2022-10-25T09:08:22.456Z,18.20
2022-10-25T09:10:58.249Z,18.20
2022-10-25T09:13:43.605Z,18.30
2022-10-25T09:16:25.197Z,18.30
2022-10-25T09:18:57.174Z,18.30
2022-10-25T09:21:45.932Z,18.30
2022-10-25T09:24:27.402Z,18.40
2022-10-25T09:27:28.452Z,18.50
2022-10-25T09:30:10.771Z,18.50
2022-10-25T09:32:56.852Z,18.50
2022-10-25T09:35:41.231Z,18.60
2022-10-25T09:38:18.010Z,18.60
2022-10-25T09:41:06.404Z,18.60
2022-10-25T09:43:42.780Z,18.70
2022-10-25T09:46:18.881Z,18.70
2022-10-25T09:48:56.688Z,18.80
2022-10-25T09:51:38.714Z,18.80
2022-10-25T09:54:21.055Z,18.90
2022-10-25T09:56:47.952Z,19.00
2022-10-25T09:59:15.983Z,19.00
2022-10-25T10:01:43.583Z,19.00
2022-10-25T10:04:37.114Z,19.00
2022-10-25T10:07:12.292Z,19.10
2022-10-25T10:09:45.571Z,19.10
2022-10-25T10:12:22.659Z,19.10
2022-10-25T10:14:58.384Z,19.20
2022-10-25T10:17:27.284Z,19.20
2022-10-25T10:20:18.636Z,19.20
2022-10-25T10:22:54.776Z,19.20
2022-10-25T10:25:26.547Z,19.20
2022-10-25T10:27:56.918Z,19.20
2022-10-25T10:30:29.568Z,19.20
2022-10-25T10:33:03.101Z,19.20
2022-10-25T10:35:36.329Z,19.20
2022-10-25T10:38:24.827Z,19.30
2022-10-25T10:41:23.379Z,19.30
2022-10-25T10:44:07.339Z,19.30
2022-10-25T10:46:34.282Z,19.40
2022-10-25T10:49:02.686Z,19.50
2022-10-25T10:51:45.366Z,19.50
2022-10-25T10:54:30.042Z,19.60
2022-10-25T10:57:03.721Z,19.60
2022-10-25T10:59:40.086Z,19.60
2022-10-25T11:02:20.614Z,19.70
2022-10-25T11:04:49.557Z,19.70
2022-10-25T11:07:35.800Z,19.70
2022-10-25T11:10:21.223Z,19.80
2022-10-25T11:13:08.839Z,19.80
2022-10-25T11:15:52.705Z,19.90
2022-10-25T11:18:50.078Z,19.90
2022-10-25T11:22:01.970Z,19.90
2022-10-25T11:25:00.470Z,20.00
2022-10-25T11:28:04.133Z,20.00
2022-10-25T11:30:44.005Z,20.00
2022-10-25T11:33:42.629Z,20.00
2022-10-25T11:36:35.517Z,20.00
2022-10-25T11:39:34.928Z,20.00
2022-10-25T11:42:30.667Z,20.00
2022-10-25T11:45:27.494Z,20.00
2022-10-25T11:48:40.491Z,20.00
2022-10-25T11:51:39.054Z,20.00
2022-10-25T11:54:44.212Z,20.00
2022-10-25T11:57:45.416Z,20.00
2022-10-25T12:00:17.701Z,20.00
2022-10-25T12:03:20.256Z,20.00
2022-10-25T12:06:09.879Z,20.00
2022-10-25T12:09:29.883Z,20.10
2022-10-25T12:12:10.049Z,20.10
2022-10-25T12:14:42.336Z,20.10
2022-10-25T12:17:26.118Z,20.20
2022-10-25T12:19:57.230Z,20.20
2022-10-25T12:22:30.593Z,20.20
2022-10-25T12:25:28.512Z,20.20
2022-10-25T12:28:20.291Z,20.20
2022-10-25T12:30:48.590Z,20.20
2022-10-25T12:33:35.279Z,20.30
2022-10-25T12:36:22.491Z,20.30
2022-10-25T12:38:49.351Z,20.30
2022-10-25T12:41:25.476Z,20.30
2022-10-25T12:44:36.604Z,20.30
2022-10-25T12:47:56.704Z,20.40
2022-10-25T12:50:53.572Z,20.40
2022-10-25T12:53:54.166Z,20.40
2022-10-25T12:56:36.112Z,20.40
2022-10-25T12:59:35.304Z,20.40
2022-10-25T13:02:39.110Z,20.30
2022-10-25T13:05:40.397Z,20.30
2022-10-25T13:08:08.046Z,20.30
2022-10-25T13:10:43.208Z,20.30
2022-10-25T13:13:33.626Z,20.40
2022-10-25T13:16:04.445Z,20.40
2022-10-25T13:18:34.269Z,20.30
2022-10-25T13:21:17.140Z,20.40
2022-10-25T13:23:44.154Z,20.30
2022-10-25T13:26:14.650Z,20.20
2022-10-25T13:28:51.372Z,20.20
2022-10-25T13:31:33.455Z,20.10
2022-10-25T13:34:12.124Z,20.10
2022-10-25T13:36:59.181Z,20.20
2022-10-25T13:39:34.689Z,20.20
2022-10-25T13:42:15.383Z,20.20
2022-10-25T13:44:55.735Z,20.10
2022-10-25T13:47:43.307Z,20.10
2022-10-25T13:50:30.787Z,20.10
2022-10-25T13:53:13.871Z,20.10
2022-10-25T13:55:53.892Z,20.00
2022-10-25T13:58:31.964Z,20.00
2022-10-25T14:01:19.235Z,20.00
2022-10-25T14:04:01.776Z,20.00
2022-10-25T14:06:33.703Z,20.00
2022-10-25T14:09:25.040Z,20.00
2022-10-25T14:12:11.997Z,20.00
2022-10-25T14:15:13.573Z,20.10
2022-10-25T14:17:44.871Z,20.10
2022-10-25T14:20:28.060Z,20.10
2022-10-25T14:23:08.047Z,20.10
2022-10-25T14:25:41.730Z,20.10
2022-10-25T14:28:16.491Z,20.10
2022-10-25T14:30:47.922Z,20.10
2022-10-25T14:33:36.632Z,20.00
2022-10-25T14:36:06.126Z,20.10
2022-10-25T14:38:49.777Z,20.10
2022-10-25T14:41:31.370Z,20.00
2022-10-25T14:43:58.565Z,20.00
2022-10-25T14:46:30.053Z,19.90
2022-10-25T14:48:59.144Z,19.90
2022-10-25T14:51:36.180Z,19.80
2022-10-25T14:54:07.013Z,19.80
2022-10-25T14:56:46.819Z,19.70
2022-10-25T14:59:31.484Z,19.70
2022-10-25T15:02:03.182Z,19.70
2022-10-25T15:04:34.590Z,19.70
2022-10-25T15:07:02.719Z,19.60
2022-10-25T15:09:42.439Z,19.60
2022-10-25T15:12:17.147Z,19.50
2022-10-25T15:14:46.515Z,19.50
2022-10-25T15:17:22.511Z,19.50
2022-10-25T15:20:01.961Z,19.50
2022-10-25T15:22:46.369Z,19.40
2022-10-25T15:25:22.283Z,19.40
2022-10-25T15:27:52.297Z,19.40
2022-10-25T15:30:50.289Z,19.40
2022-10-25T15:33:21.883Z,19.40
2022-10-25T15:35:59.160Z,19.30
2022-10-25T15:39:05.493Z,19.30
2022-10-25T15:41:22.940Z,19.20
2022-10-25T15:43:49.857Z,19.20
2022-10-25T15:46:25.728Z,19.20
2022-10-25T15:48:53.233Z,19.10
2022-10-25T15:51:20.563Z,19.10
2022-10-25T15:53:47.701Z,19.10
2022-10-25T15:56:18.809Z,19.00
2022-10-25T15:58:45.706Z,19.00
2022-10-25T16:01:13.314Z,19.00
2022-10-25T16:03:40.285Z,18.90
2022-10-25T16:06:13.274Z,18.90
2022-10-25T16:08:41.727Z,18.80
2022-10-25T16:11:16.819Z,18.70
2022-10-25T16:13:45.937Z,18.70
2022-10-25T16:16:39.469Z,18.70
2022-10-25T16:19:13.640Z,18.60
2022-10-25T16:21:40.524Z,18.60
2022-10-25T16:24:07.436Z,18.50
2022-10-25T16:26:38.292Z,18.50
2022-10-25T16:29:06.408Z,18.40
2022-10-25T16:31:33.323Z,18.40
2022-10-25T16:34:00.212Z,18.40
2022-10-25T16:36:27.112Z,18.30
2022-10-25T16:38:53.967Z,18.30
2022-10-25T16:41:29.419Z,18.20
2022-10-25T16:43:58.161Z,18.20
2022-10-25T16:46:26.143Z,18.10
2022-10-25T16:48:54.225Z,18.10
2022-10-25T16:51:24.846Z,18.00
2022-10-25T16:53:51.940Z,18.00
2022-10-25T16:56:18.993Z,17.90
2022-10-25T16:58:46.024Z,17.90
2022-10-25T17:01:29.012Z,17.90
2022-10-25T17:03:56.225Z,17.80
2022-10-25T17:09:11.029Z,17.70
2022-10-25T17:11:37.924Z,17.70
2022-10-25T17:14:05.724Z,17.70
2022-10-25T17:16:33.307Z,17.60
2022-10-25T17:19:00.544Z,17.60
2022-10-25T17:21:28.376Z,17.60
2022-10-25T17:23:56.105Z,17.50
2022-10-25T17:26:23.013Z,17.50
2022-10-25T17:28:49.904Z,17.50
2022-10-25T17:31:17.295Z,17.40
2022-10-25T17:33:44.624Z,17.40
2022-10-25T17:36:18.436Z,17.40
2022-10-25T17:38:45.460Z,17.30
2022-10-25T17:41:13.176Z,17.30
2022-10-25T17:43:41.303Z,17.30
2022-10-25T17:46:16.911Z,17.20
2022-10-25T17:48:43.787Z,17.20
2022-10-25T17:51:13.283Z,17.10
2022-10-25T17:53:40.208Z,17.10
2022-10-25T17:56:18.267Z,17.10
2022-10-25T17:58:47.715Z,17.00
2022-10-25T18:01:25.186Z,17.00
2022-10-25T18:03:54.048Z,17.00
2022-10-25T18:06:23.710Z,16.90
2022-10-25T18:08:59.055Z,16.90
2022-10-25T18:11:28.316Z,16.90
2022-10-25T18:14:00.867Z,16.80
2022-10-25T18:16:30.999Z,16.80
2022-10-25T18:19:02.228Z,16.80
2022-10-25T18:21:29.554Z,16.80
2022-10-25T18:24:00.881Z,16.70
2022-10-25T18:26:28.228Z,16.70
2022-10-25T18:28:57.037Z,16.70
2022-10-25T18:31:26.915Z,16.70
2022-10-25T18:34:03.216Z,16.70
2022-10-25T18:36:30.915Z,16.70
2022-10-25T18:38:57.897Z,16.60
2022-10-25T18:41:29.214Z,16.60
2022-10-25T18:43:56.348Z,16.60
2022-10-25T18:46:25.138Z,16.60
2022-10-25T18:48:53.268Z,16.50
2022-10-25T18:51:22.261Z,16.50
2022-10-25T18:53:56.495Z,16.50
2022-10-25T18:56:23.757Z,16.50
2022-10-25T18:58:51.097Z,16.50
2022-10-25T19:01:22.802Z,16.50
2022-10-25T19:03:50.519Z,16.40
2022-10-25T19:06:18.171Z,16.40
2022-10-25T19:08:45.094Z,16.40
2022-10-25T19:11:13.696Z,16.30
2022-10-25T19:13:41.207Z,16.30
2022-10-25T19:16:09.461Z,16.30
2022-10-25T19:18:37.518Z,16.30
2022-10-25T19:21:13.653Z,16.30
2022-10-25T19:23:42.712Z,16.30
2022-10-25T19:26:14.068Z,16.30
2022-10-25T19:28:40.946Z,16.20
2022-10-25T19:31:14.503Z,16.20
2022-10-25T19:33:46.310Z,16.20
2022-10-25T19:36:13.515Z,16.20
2022-10-25T19:38:40.786Z,16.10
2022-10-25T19:41:10.408Z,16.10
2022-10-25T19:43:37.366Z,16.10
2022-10-25T19:46:07.169Z,16.10
2022-10-25T19:48:34.899Z,16.10
2022-10-25T19:51:10.821Z,16.00
2022-10-25T19:53:38.230Z,16.00
2022-10-25T19:56:09.686Z,16.00
2022-10-25T19:58:36.895Z,16.00
2022-10-25T20:01:13.872Z,16.00
2022-10-25T20:03:41.841Z,15.90
2022-10-25T20:06:12.757Z,15.90
2022-10-25T20:08:40.867Z,15.90
2022-10-25T20:11:10.817Z,15.90
2022-10-25T20:13:38.171Z,15.80
2022-10-25T20:16:06.443Z,15.80
2022-10-25T20:18:37.393Z,15.80
2022-10-25T20:21:18.832Z,15.80
2022-10-25T20:23:50.871Z,15.80
2022-10-25T20:26:31.225Z,15.80
2022-10-25T20:29:02.193Z,15.80
2022-10-25T20:31:32.550Z,15.80
2022-10-25T20:34:00.112Z,15.80
2022-10-25T20:36:27.056Z,15.70
2022-10-25T20:38:53.961Z,15.70
2022-10-25T20:41:27.492Z,15.70
2022-10-25T20:43:59.810Z,15.70
2022-10-25T20:46:28.494Z,15.60
2022-10-25T20:48:56.975Z,15.60
2022-10-25T20:51:24.068Z,15.60
2022-10-25T20:53:51.216Z,15.60
2022-10-25T20:56:19.846Z,15.60
2022-10-25T20:58:47.128Z,15.60
2022-10-25T21:01:14.211Z,15.50
2022-10-25T21:03:41.696Z,15.50
2022-10-25T21:06:12.251Z,15.50
2022-10-25T21:08:39.556Z,15.50
2022-10-25T21:11:09.561Z,15.50
2022-10-25T21:13:37.265Z,15.50
2022-10-25T21:16:10.296Z,15.40
2022-10-25T21:18:37.630Z,15.40
2022-10-25T21:21:08.438Z,15.40
2022-10-25T21:23:35.676Z,15.40
2022-10-25T21:26:06.659Z,15.40
2022-10-25T21:28:36.904Z,15.30
2022-10-25T21:31:11.701Z,15.40
2022-10-25T21:33:39.145Z,15.30
2022-10-25T21:36:14.815Z,15.30
2022-10-25T21:38:42.358Z,15.30
2022-10-25T21:41:14.461Z,15.30
2022-10-25T21:43:44.552Z,15.30
2022-10-25T21:46:12.563Z,15.30
2022-10-25T21:48:39.711Z,15.30
2022-10-25T21:51:07.082Z,15.30
2022-10-25T21:53:33.999Z,15.20
2022-10-25T21:56:12.609Z,15.20
2022-10-25T21:58:41.425Z,15.20
2022-10-25T22:01:17.273Z,15.20
2022-10-25T22:03:44.338Z,15.20
2022-10-25T22:06:17.746Z,15.20
2022-10-25T22:08:44.943Z,15.20
2022-10-25T22:11:14.296Z,15.20
2022-10-25T22:13:41.618Z,15.20
2022-10-25T22:16:19.144Z,15.20
2022-10-25T22:19:02.903Z,15.30
2022-10-25T22:21:40.927Z,15.20
2022-10-25T22:24:09.644Z,15.20
2022-10-25T22:26:38.610Z,15.20
2022-10-25T22:29:05.778Z,15.20
2022-10-25T22:31:33.554Z,15.20
2022-10-25T22:34:03.560Z,15.10
2022-10-25T22:36:34.011Z,15.20
2022-10-25T22:39:00.994Z,15.10
2022-10-25T22:41:30.146Z,15.10
2022-10-25T22:43:58.363Z,15.10
2022-10-25T22:46:35.929Z,15.00
2022-10-25T22:49:08.567Z,15.00
2022-10-25T22:51:36.594Z,15.00
2022-10-25T22:54:03.739Z,15.00
2022-10-25T22:56:31.278Z,15.00
2022-10-25T22:59:01.612Z,15.00
2022-10-25T23:01:31.689Z,15.00
2022-10-25T23:04:00.435Z,15.00
2022-10-25T23:06:30.734Z,15.00
2022-10-25T23:09:03.628Z,15.00
2022-10-25T23:11:33.567Z,15.00
2022-10-25T23:14:01.383Z,15.00
2022-10-25T23:16:29.615Z,15.00
2022-10-25T23:18:57.044Z,15.00
2022-10-25T23:21:26.790Z,15.00
2022-10-25T23:23:54.960Z,15.00
2022-10-25T23:26:31.778Z,15.00
2022-10-25T23:29:00.140Z,15.00
2022-10-25T23:31:27.299Z,15.00
2022-10-25T23:33:56.982Z,15.00
2022-10-25T23:36:28.012Z,15.00
2022-10-25T23:38:55.765Z,15.00
2022-10-25T23:41:23.338Z,15.00
2022-10-25T23:43:50.357Z,15.00
2022-10-25T23:46:17.240Z,15.10
2022-10-25T23:48:44.113Z,15.00
2022-10-25T23:51:14.902Z,15.10
2022-10-25T23:53:42.362Z,15.10
2022-10-25T23:56:11.985Z,15.00
2022-10-25T23:58:39.594Z,15.00
